Time;durP1;ratioP1;P1;durP2;ratioP2;P2;SDS_P1;SDS_P2;PMS_P1;PMS_P2;Temp;Humidity;BMP_temperature;BMP_pressure;BME280_temperature;BME280_humidity;BME280_pressure;Samples;Min_cycle;Max_cycle;Signal;HPM_P1;HPM_P2
2022/03/11 00:02:02;;;;;;;18.83;10.25;;;;;;;4.69;50.82;99757.66;4935400;29;20030;-74
2022/03/11 00:04:27;;;;;;;15.55;9.30;;;;;;;4.55;51.05;99755.38;4936358;28;20058;-74
2022/03/11 00:06:52;;;;;;;14.18;8.77;;;;;;;4.46;51.55;99753.03;4955515;28;20055;-74
2022/03/11 00:09:18;;;;;;;14.52;9.07;;;;;;;4.35;52.07;99755.03;4954338;28;20067;-75
2022/03/11 00:11:43;;;;;;;11.73;7.43;;;;;;;4.29;51.52;99748.22;4950931;28;20046;-73
2022/03/11 00:14:08;;;;;;;12.73;9.07;;;;;;;4.29;52.28;99753.44;4951340;28;20105;-75
2022/03/11 00:16:34;;;;;;;16.35;10.18;;;;;;;4.22;53.34;99747.50;4935625;29;20102;-74
2022/03/11 00:18:59;;;;;;;13.38;9.10;;;;;;;4.14;53.35;99751.19;4951401;28;20039;-75
2022/03/11 00:21:25;;;;;;;14.02;9.75;;;;;;;4.07;52.99;99751.31;4950478;28;20035;-74
2022/03/11 00:23:50;;;;;;;13.88;8.13;;;;;;;4.00;53.08;99747.13;4950823;28;20039;-74
2022/03/11 00:26:16;;;;;;;11.63;8.27;;;;;;;3.97;52.87;99752.44;4951247;28;20050;-74
2022/03/11 00:28:42;;;;;;;10.98;7.70;;;;;;;3.88;52.89;99745.66;4951044;28;20110;-75
2022/03/11 00:31:07;;;;;;;19.23;10.20;;;;;;;3.84;53.50;99737.97;4950324;28;20031;-74
2022/03/11 00:33:33;;;;;;;14.95;8.48;;;;;;;3.86;53.44;99747.47;4951582;28;20039;-74
2022/03/11 00:35:59;;;;;;;13.70;8.85;;;;;;;3.74;54.44;99739.91;4950902;28;20049;-74
2022/03/11 00:38:25;;;;;;;15.15;8.38;;;;;;;3.62;54.11;99738.44;4950986;28;20074;-74
2022/03/11 00:40:51;;;;;;;11.90;7.78;;;;;;;3.64;54.17;99738.38;4933979;28;20035;-74
2022/03/11 00:43:17;;;;;;;12.93;7.88;;;;;;;3.62;54.68;99733.22;4950817;28;20050;-74
2022/03/11 00:45:43;;;;;;;11.32;7.53;;;;;;;3.55;54.74;99738.59;4934078;28;20035;-75
2022/03/11 00:48:08;;;;;;;18.05;9.77;;;;;;;3.44;55.28;99744.03;4951863;28;20045;-75
2022/03/11 00:50:34;;;;;;;15.02;8.82;;;;;;;3.40;55.00;99739.78;4935476;29;20530;-74
2022/03/11 00:52:59;;;;;;;12.35;8.10;;;;;;;3.34;55.69;99738.13;4951776;28;20035;-75
2022/03/11 00:55:26;;;;;;;12.13;7.60;;;;;;;3.27;55.32;99731.34;4935362;28;20047;-74
2022/03/11 00:57:52;;;;;;;14.38;9.38;;;;;;;3.24;56.53;99726.19;4951088;28;20459;-73
2022/03/11 01:00:17;;;;;;;13.55;9.55;;;;;;;3.15;56.60;99735.06;4954229;28;20150;-74
2022/03/11 01:02:43;;;;;;;12.20;7.95;;;;;;;3.10;56.22;99723.88;4933908;28;20507;-74
2022/03/11 01:05:10;;;;;;;16.25;8.20;;;;;;;3.20;55.84;99729.78;4941834;28;20032;-74
2022/03/11 01:07:35;;;;;;;12.05;8.50;;;;;;;3.12;56.69;99729.91;4944222;29;20043;-74
2022/03/11 01:10:01;;;;;;;21.85;13.43;;;;;;;3.18;55.91;99721.97;4951600;28;20035;-74
2022/03/11 01:12:26;;;;;;;24.95;12.30;;;;;;;3.20;56.11;99717.59;4955930;28;20035;-74
2022/03/11 01:14:52;;;;;;;13.98;8.82;;;;;;;3.20;56.04;99720.19;4956086;28;20031;-74
2022/03/11 01:17:18;;;;;;;17.10;9.45;;;;;;;3.17;56.68;99717.63;4955359;28;20047;-74
2022/03/11 01:19:43;;;;;;;16.20;9.57;;;;;;;3.14;57.06;99701.22;4955690;28;20063;-74
2022/03/11 01:22:08;;;;;;;12.20;7.50;;;;;;;3.08;56.62;99699.63;4954928;28;20110;-74
2022/03/11 01:24:34;;;;;;;17.23;8.20;;;;;;;3.02;57.05;99702.31;4955573;28;20046;-74
2022/03/11 01:26:59;;;;;;;11.77;7.82;;;;;;;3.01;56.64;99704.06;4955395;28;20471;-72
2022/03/11 01:29:24;;;;;;;17.73;10.05;;;;;;;3.05;56.54;99690.97;4955531;28;20785;-75
2022/03/11 01:31:51;;;;;;;13.82;7.88;;;;;;;3.04;56.38;99697.94;4954686;28;20035;-74
2022/03/11 01:34:16;;;;;;;15.57;9.00;;;;;;;3.07;56.21;99690.06;4954797;28;20038;-75
2022/03/11 01:36:42;;;;;;;14.85;9.15;;;;;;;3.07;56.43;99684.84;4955669;28;20086;-75
2022/03/11 01:39:07;;;;;;;18.98;8.18;;;;;;;3.08;55.34;99686.59;4955582;28;20035;-74
2022/03/11 01:41:32;;;;;;;14.77;8.63;;;;;;;3.14;55.77;99683.00;4953784;28;20042;-74
2022/03/11 01:44:01;;;;;;;19.05;9.57;;;;;;;3.11;56.64;99677.84;4952969;28;20051;-74
2022/03/11 01:46:30;;;;;;;10.10;6.57;;;;;;;3.14;55.47;99673.41;4953653;28;20062;-74
2022/03/11 01:49:01;;;;;;;14.43;8.85;;;;;;;3.11;55.45;99663.06;4953201;28;20115;-75
2022/03/11 01:51:27;;;;;;;13.15;8.10;;;;;;;3.15;55.91;99669.94;4953230;28;20047;-74
2022/03/11 01:53:54;;;;;;;14.10;7.50;;;;;;;3.16;55.38;99666.44;4936463;28;20035;-74
2022/03/11 01:56:21;;;;;;;10.25;7.18;;;;;;;3.31;54.32;99672.22;4953702;28;20047;-74
2022/03/11 01:58:51;;;;;;;11.35;7.70;;;;;;;3.36;53.92;99657.34;4954522;28;20031;-74
2022/03/11 02:01:18;;;;;;;11.32;6.85;;;;;;;3.52;49.86;99658.72;4949783;28;20566;-75
2022/03/11 02:03:43;;;;;;;10.70;6.10;;;;;;;3.79;48.49;99654.63;4938014;28;20042;-72
2022/03/11 02:06:12;;;;;;;10.65;6.60;;;;;;;4.05;46.46;99653.97;4955386;28;20031;-73
2022/03/11 02:08:37;;;;;;;9.68;6.80;;;;;;;4.39;45.83;99642.69;4938284;28;20046;-75
2022/03/11 02:11:03;;;;;;;17.13;6.75;;;;;;;4.68;44.10;99639.28;4937399;28;20031;-75
2022/03/11 02:13:41;;;;;;;13.20;8.23;;;;;;;5.00;42.69;99628.84;4954673;28;20031;-75
2022/03/11 02:16:06;;;;;;;13.63;7.82;;;;;;;5.30;41.64;99633.16;4954738;28;20115;-75
2022/03/11 02:18:31;;;;;;;13.43;7.50;;;;;;;5.55;40.63;99638.47;4953819;28;20122;-75
2022/03/11 02:20:57;;;;;;;12.93;7.20;;;;;;;5.69;40.45;99632.84;4936818;28;20067;-74
2022/03/11 02:23:23;;;;;;;14.27;8.40;;;;;;;5.87;39.90;99628.75;4953408;28;20035;-75
2022/03/11 02:25:49;;;;;;;9.27;6.80;;;;;;;5.98;39.33;99626.69;4953868;28;20035;-74
2022/03/11 02:28:14;;;;;;;13.50;7.88;;;;;;;6.07;39.09;99625.50;4953541;28;20058;-74
2022/03/11 02:30:39;;;;;;;9.52;6.43;;;;;;;6.16;38.97;99625.22;4954586;28;20050;-74
2022/03/11 02:33:05;;;;;;;11.93;7.43;;;;;;;6.22;38.66;99622.38;4937759;28;20035;-74
2022/03/11 02:35:30;;;;;;;12.45;7.18;;;;;;;6.28;38.37;99621.34;4956080;28;20047;-73
2022/03/11 02:37:55;;;;;;;13.90;7.82;;;;;;;6.31;38.31;99621.22;4954561;28;20488;-74
2022/03/11 02:40:21;;;;;;;12.40;7.38;;;;;;;6.34;38.05;99618.50;4935426;28;20035;-74
2022/03/11 02:42:46;;;;;;;13.43;7.95;;;;;;;6.35;37.90;99617.59;4952404;28;20031;-74
2022/03/11 02:45:11;;;;;;;9.90;7.18;;;;;;;6.38;37.81;99617.47;4952329;28;20043;-73
2022/03/11 02:47:37;;;;;;;12.52;6.45;;;;;;;6.40;37.83;99617.44;4952591;28;20039;-72
2022/03/11 02:50:03;;;;;;;11.18;8.35;;;;;;;6.43;37.67;99617.31;4952441;28;20039;-73
2022/03/11 02:52:29;;;;;;;11.32;7.50;;;;;;;6.44;37.76;99616.41;4934907;28;20042;-73
2022/03/11 02:54:55;;;;;;;15.10;7.80;;;;;;;6.42;37.86;99619.09;4952644;28;20114;-73
2022/03/11 02:57:20;;;;;;;10.13;6.53;;;;;;;6.41;37.72;99611.28;4952432;28;20118;-73
2022/03/11 02:59:46;;;;;;;21.73;7.95;;;;;;;6.37;38.08;99612.28;4952428;28;20049;-73
2022/03/11 03:02:12;;;;;;;11.20;7.32;;;;;;;6.34;37.98;99615.03;4951245;28;20050;-74
2022/03/11 03:04:37;;;;;;;10.90;6.78;;;;;;;6.29;38.23;99619.56;4952340;28;20491;-75
2022/03/11 03:07:03;;;;;;;13.85;6.80;;;;;;;6.21;38.66;99619.84;4952129;28;20039;-75
2022/03/11 03:09:29;;;;;;;9.63;6.70;;;;;;;6.17;37.98;99616.44;4951804;28;20503;-73
2022/03/11 03:11:54;;;;;;;11.23;6.95;;;;;;;6.12;38.50;99613.13;4951327;28;20503;-74
2022/03/11 03:14:20;;;;;;;10.27;8.10;;;;;;;6.08;38.77;99613.28;4951779;28;20035;-73
2022/03/11 03:16:45;;;;;;;10.35;6.65;;;;;;;6.09;38.52;99605.38;4951777;28;20055;-74
2022/03/11 03:19:10;;;;;;;12.60;7.93;;;;;;;6.11;38.19;99608.81;4952107;28;20090;-73
2022/03/11 03:21:36;;;;;;;10.35;6.80;;;;;;;6.10;38.38;99604.47;4933315;29;20601;-72
2022/03/11 03:24:01;;;;;;;14.13;7.10;;;;;;;6.12;38.59;99610.50;4951745;28;20035;-76
2022/03/11 03:26:26;;;;;;;10.93;7.35;;;;;;;6.11;38.19;99606.19;4951906;28;20035;-73
2022/03/11 03:28:52;;;;;;;12.30;6.82;;;;;;;6.11;38.11;99600.13;4951349;28;20070;-73
2022/03/11 03:31:19;;;;;;;10.40;6.80;;;;;;;6.11;38.44;99595.72;4950978;28;20119;-73
2022/03/11 03:33:44;;;;;;;10.25;7.15;;;;;;;6.09;38.01;99596.69;4934136;28;20035;-74
2022/03/11 03:36:10;;;;;;;11.32;6.90;;;;;;;6.09;37.95;99592.31;4952101;28;20058;-73
2022/03/11 03:38:35;;;;;;;13.00;6.35;;;;;;;6.11;37.90;99594.88;4951432;28;20428;-74
2022/03/11 03:41:00;;;;;;;11.60;7.13;;;;;;;6.09;37.77;99594.91;4951052;28;20404;-74
2022/03/11 03:43:26;;;;;;;10.40;6.38;;;;;;;6.11;38.33;99595.72;4950823;28;20043;-74
2022/03/11 03:45:51;;;;;;;9.15;6.55;;;;;;;6.11;37.88;99584.41;4951781;28;20122;-73
2022/03/11 03:48:16;;;;;;;10.50;5.97;;;;;;;6.10;38.17;99586.16;4951757;28;20063;-73
2022/03/11 03:50:42;;;;;;;10.07;6.72;;;;;;;6.10;38.26;99578.28;4952174;28;20031;-73
2022/03/11 03:53:07;;;;;;;12.13;7.13;;;;;;;6.09;38.08;99581.00;4953005;28;20043;-72
2022/03/11 03:55:32;;;;;;;9.65;6.05;;;;;;;6.10;38.40;99577.44;4952492;28;20035;-73
2022/03/11 03:57:58;;;;;;;13.27;6.32;;;;;;;6.08;38.56;99576.63;4952182;28;20456;-73
2022/03/11 04:00:23;;;;;;;9.30;6.93;;;;;;;6.07;38.45;99572.31;4951726;28;20042;-75
2022/03/11 04:02:50;;;;;;;10.10;5.70;;;;;;;6.04;38.75;99567.22;4951559;28;20031;-72
2022/03/11 04:05:17;;;;;;;9.65;6.43;;;;;;;5.98;38.76;99566.50;4951629;28;20114;-73
2022/03/11 04:07:43;;;;;;;9.95;5.95;;;;;;;5.94;38.84;99566.66;4952075;28;20035;-72
2022/03/11 04:10:10;;;;;;;8.63;5.78;;;;;;;5.88;39.18;99570.31;4952723;28;20554;-73
2022/03/11 04:12:35;;;;;;;11.30;5.75;;;;;;;5.80;39.08;99565.31;4951873;28;20495;-73
2022/03/11 04:15:01;;;;;;;11.25;6.22;;;;;;;5.68;40.12;99567.47;4951668;28;20101;-73
2022/03/11 04:17:26;;;;;;;8.77;5.70;;;;;;;5.60;41.55;99570.34;4951550;28;20562;-74
2022/03/11 04:19:51;;;;;;;9.30;7.22;;;;;;;5.49;40.02;99556.75;4960545;28;20046;-74
2022/03/11 04:22:17;;;;;;;14.65;6.70;;;;;;;5.38;41.38;99568.41;4966463;28;20058;-73
2022/03/11 04:24:42;;;;;;;9.98;6.28;;;;;;;5.32;40.91;99558.16;4966716;28;20114;-74
2022/03/11 04:27:08;;;;;;;9.15;6.75;;;;;;;5.35;39.95;99560.69;4953605;28;20439;-74
2022/03/11 04:29:34;;;;;;;13.02;7.10;;;;;;;5.38;40.70;99560.56;4952556;28;20043;-73
2022/03/11 04:31:59;;;;;;;10.82;6.55;;;;;;;5.35;41.52;99555.44;4951846;28;20038;-74
2022/03/11 04:34:25;;;;;;;18.65;8.68;;;;;;;5.40;40.09;99559.69;4938676;28;20050;-74
2022/03/11 04:36:51;;;;;;;11.32;6.80;;;;;;;5.45;41.49;99550.78;4956105;28;20047;-72
2022/03/11 04:39:17;;;;;;;8.30;6.10;;;;;;;5.48;40.20;99555.91;4956207;28;20462;-73
2022/03/11 04:41:44;;;;;;;8.93;6.25;;;;;;;5.54;40.27;99554.88;4956313;28;20062;-74
2022/03/11 04:44:09;;;;;;;9.85;5.63;;;;;;;5.57;39.80;99546.94;4960787;28;20035;-74
2022/03/11 04:46:34;;;;;;;9.75;6.82;;;;;;;5.62;39.98;99552.84;4958508;28;20097;-74
2022/03/11 04:49:00;;;;;;;9.35;6.80;;;;;;;5.66;39.85;99557.09;4924699;28;20046;-73
2022/03/11 04:51:25;;;;;;;12.32;7.85;;;;;;;5.69;39.90;99556.13;4958317;28;20050;-75
2022/03/11 04:53:51;;;;;;;12.35;6.80;;;;;;;5.72;39.78;99549.03;4942587;28;20095;-74
2022/03/11 04:56:17;;;;;;;12.38;7.35;;;;;;;5.76;39.79;99558.50;4956071;28;20070;-73
2022/03/11 04:58:42;;;;;;;10.65;7.75;;;;;;;5.81;39.85;99545.28;4951470;28;20031;-75
2022/03/11 05:01:07;;;;;;;10.95;7.50;;;;;;;5.87;39.78;99541.59;4956586;28;20058;-74
2022/03/11 05:03:34;;;;;;;10.68;7.13;;;;;;;5.88;39.42;99541.53;4955394;28;20051;-73
2022/03/11 05:05:59;;;;;;;10.20;7.20;;;;;;;5.89;39.51;99537.16;4954912;28;20031;-73
2022/03/11 05:08:25;;;;;;;19.52;8.13;;;;;;;5.91;39.36;99543.19;4955765;28;20058;-74
2022/03/11 05:10:50;;;;;;;10.50;6.90;;;;;;;5.92;39.22;99537.88;4955478;28;20123;-73
2022/03/11 05:13:16;;;;;;;11.10;6.75;;;;;;;5.96;39.69;99543.94;4955865;28;20039;-73
2022/03/11 05:15:41;;;;;;;12.05;7.35;;;;;;;5.97;39.50;99536.00;4953989;28;20086;-74
2022/03/11 05:18:08;;;;;;;11.07;6.68;;;;;;;5.99;39.48;99530.72;4954742;28;20062;-73
2022/03/11 05:20:34;;;;;;;12.50;6.78;;;;;;;6.02;39.65;99525.38;4954415;28;20035;-74
2022/03/11 05:23:00;;;;;;;15.70;6.47;;;;;;;6.05;39.47;99529.66;4954283;28;20036;-73
2022/03/11 05:25:25;;;;;;;15.07;7.25;;;;;;;6.06;39.43;99547.94;4954599;28;20046;-74
2022/03/11 05:27:51;;;;;;;11.38;6.68;;;;;;;6.05;39.33;99540.97;4955112;28;20130;-74
2022/03/11 05:30:17;;;;;;;9.00;6.50;;;;;;;6.06;39.65;99532.22;4954967;28;20046;-73
2022/03/11 05:32:46;;;;;;;12.80;7.07;;;;;;;6.06;39.27;99531.38;4938563;28;20454;-74
2022/03/11 05:35:13;;;;;;;10.70;6.72;;;;;;;6.05;39.35;99524.41;4956876;28;20035;-73
2022/03/11 05:37:39;;;;;;;13.20;7.10;;;;;;;6.05;39.70;99527.03;4957976;28;20035;-74
2022/03/11 05:40:05;;;;;;;14.18;7.25;;;;;;;6.06;39.40;99528.75;4957689;28;20427;-72
2022/03/11 05:42:30;;;;;;;12.55;7.70;;;;;;;6.06;39.58;99526.16;4955966;28;20047;-74
2022/03/11 05:44:56;;;;;;;13.05;7.38;;;;;;;6.02;39.69;99522.75;4953043;28;20098;-73
2022/03/11 05:47:21;;;;;;;17.65;7.63;;;;;;;6.01;39.99;99519.31;4952731;28;20031;-74
2022/03/11 05:49:48;;;;;;;11.15;7.93;;;;;;;6.00;39.71;99520.19;4936299;28;20138;-72
2022/03/11 05:52:13;;;;;;;13.00;8.10;;;;;;;6.02;40.16;99521.00;4952934;28;20039;-74
2022/03/11 05:54:38;;;;;;;11.40;7.25;;;;;;;6.00;40.38;99519.34;4953743;28;20051;-74
2022/03/11 05:57:04;;;;;;;11.35;7.88;;;;;;;5.98;40.19;99519.41;4936168;28;20118;-73
2022/03/11 05:59:29;;;;;;;9.85;7.18;;;;;;;5.98;40.30;99521.16;4953383;28;20122;-74
2022/03/11 06:01:55;;;;;;;16.33;7.45;;;;;;;5.97;40.37;99527.31;4920049;28;20472;-74
2022/03/11 06:04:21;;;;;;;14.45;8.15;;;;;;;5.98;40.09;99526.38;4936100;28;20090;-74
2022/03/11 06:06:47;;;;;;;10.68;6.95;;;;;;;5.98;40.44;99518.53;4953376;28;20035;-74
2022/03/11 06:09:12;;;;;;;11.75;6.85;;;;;;;5.97;40.33;99517.69;4953484;28;20067;-75
2022/03/11 06:11:38;;;;;;;14.05;6.95;;;;;;;5.97;40.34;99527.31;4935811;29;20094;-75
2022/03/11 06:14:04;;;;;;;9.85;6.45;;;;;;;5.97;40.48;99525.53;4936232;28;20059;-73
2022/03/11 06:16:29;;;;;;;13.73;8.30;;;;;;;6.00;40.81;99521.97;4953358;28;20428;-75
2022/03/11 06:18:55;;;;;;;14.20;7.95;;;;;;;6.00;40.97;99517.56;4953145;28;20035;-75
2022/03/11 06:21:20;;;;;;;9.98;7.00;;;;;;;6.05;40.77;99517.41;4952512;28;20109;-74
2022/03/11 06:23:46;;;;;;;13.35;8.02;;;;;;;6.06;40.81;99515.69;4953324;28;20039;-74
2022/03/11 06:26:11;;;;;;;14.52;8.40;;;;;;;6.10;40.82;99506.78;4936386;29;20039;-74
2022/03/11 06:28:36;;;;;;;9.77;6.78;;;;;;;6.11;41.12;99511.97;4952057;28;20035;-74
2022/03/11 06:31:02;;;;;;;13.75;7.88;;;;;;;6.14;40.85;99509.25;4953167;28;20043;-74
2022/03/11 06:33:27;;;;;;;13.73;8.30;;;;;;;6.19;41.18;99511.69;4953302;28;20507;-75
2022/03/11 06:35:53;;;;;;;13.70;8.05;;;;;;;6.22;41.01;99514.19;4955808;28;20491;-73
2022/03/11 06:38:18;;;;;;;11.98;7.70;;;;;;;6.29;41.29;99520.09;4955595;28;20062;-75
2022/03/11 06:40:44;;;;;;;12.90;7.72;;;;;;;6.33;41.07;99527.78;4955322;28;20076;-73
2022/03/11 06:43:09;;;;;;;14.52;7.57;;;;;;;6.42;41.33;99521.34;4955918;28;20038;-73
2022/03/11 06:45:35;;;;;;;12.15;8.27;;;;;;;6.58;41.05;99521.66;4954306;28;20043;-72
2022/03/11 06:48:00;;;;;;;9.70;6.72;;;;;;;6.78;40.97;99524.34;4954101;28;20571;-74
2022/03/11 06:50:26;;;;;;;13.25;9.07;;;;;;;6.91;40.44;99524.75;4953678;28;20503;-73
2022/03/11 06:52:52;;;;;;;12.63;7.72;;;;;;;7.08;40.78;99524.94;4936053;28;20090;-74
2022/03/11 06:55:18;;;;;;;15.10;7.72;;;;;;;7.28;40.21;99524.16;4952977;28;20039;-74
2022/03/11 06:57:44;;;;;;;12.35;7.65;;;;;;;7.43;39.81;99520.09;4952721;28;20031;-75
2022/03/11 07:00:10;;;;;;;13.45;7.88;;;;;;;7.63;39.70;99529.75;4953174;28;20042;-75
2022/03/11 07:02:36;;;;;;;14.82;8.32;;;;;;;7.78;40.07;99527.38;4952634;28;20039;-75
2022/03/11 07:05:06;;;;;;;22.75;8.35;;;;;;;7.94;39.65;99513.56;4956767;28;20034;-74
2022/03/11 07:07:33;;;;;;;15.45;7.82;;;;;;;8.09;39.08;99524.31;4951922;28;20043;-74
2022/03/11 07:09:59;;;;;;;13.00;8.13;;;;;;;8.16;39.30;99517.88;4952643;28;20027;-74
2022/03/11 07:12:24;;;;;;;13.82;8.05;;;;;;;8.20;39.12;99519.47;4951650;28;20045;-74
2022/03/11 07:14:49;;;;;;;14.45;9.25;;;;;;;8.28;39.52;99519.97;4952217;28;20347;-74
2022/03/11 07:17:15;;;;;;;14.77;8.50;;;;;;;8.29;39.07;99526.06;4952467;28;20189;-75
2022/03/11 07:19:40;;;;;;;12.65;7.80;;;;;;;8.30;39.22;99518.13;4952609;28;20082;-75
2022/03/11 07:22:06;;;;;;;11.88;7.60;;;;;;;8.35;39.26;99517.94;4951958;28;20031;-75
2022/03/11 07:24:32;;;;;;;16.02;8.40;;;;;;;8.38;39.87;99513.38;4952012;28;20439;-73
2022/03/11 07:26:58;;;;;;;14.68;9.00;;;;;;;8.43;39.54;99513.22;4935561;28;20102;-74
2022/03/11 07:29:23;;;;;;;13.40;8.25;;;;;;;8.43;40.29;99504.50;4952243;28;20735;-73
2022/03/11 07:31:49;;;;;;;15.82;8.45;;;;;;;8.53;39.87;99514.50;4934284;28;20086;-74
2022/03/11 07:34:15;;;;;;;14.20;7.93;;;;;;;8.60;40.50;99502.78;4952006;28;20031;-74
2022/03/11 07:36:40;;;;;;;15.95;9.40;;;;;;;8.69;40.05;99495.41;4952109;28;20039;-73
2022/03/11 07:39:08;;;;;;;15.00;8.60;;;;;;;8.75;40.01;99492.50;4952056;28;20102;-75
2022/03/11 07:41:34;;;;;;;14.18;8.95;;;;;;;8.85;40.43;99498.19;4951269;28;20050;-73
2022/03/11 07:44:00;;;;;;;23.13;7.78;;;;;;;8.97;40.11;99500.25;4951296;28;20522;-73
2022/03/11 07:46:27;;;;;;;15.18;8.63;;;;;;;9.08;39.85;99495.34;4951716;28;20058;-75
2022/03/11 07:48:54;;;;;;;15.98;8.20;;;;;;;9.17;40.44;99505.41;4934872;28;20238;-73
2022/03/11 07:51:20;;;;;;;12.48;8.07;;;;;;;9.24;40.56;99495.44;4950788;28;20407;-74
2022/03/11 07:53:45;;;;;;;15.00;9.25;;;;;;;9.30;39.86;99499.53;4951860;28;20693;-74
2022/03/11 07:56:12;;;;;;;18.15;9.48;;;;;;;9.37;39.58;99499.16;4952595;28;20126;-74
2022/03/11 07:58:39;;;;;;;12.68;8.43;;;;;;;9.45;39.41;99497.03;4952101;28;20055;-73
2022/03/11 08:01:07;;;;;;;12.07;8.90;;;;;;;9.51;39.37;99498.50;4934263;28;20125;-77
2022/03/11 08:03:33;;;;;;;15.38;8.25;;;;;;;9.60;39.84;99500.69;4951960;28;20031;-73
2022/03/11 08:05:59;;;;;;;14.77;8.48;;;;;;;9.70;39.67;99493.19;4951708;28;20039;-73
2022/03/11 08:08:24;;;;;;;17.52;8.50;;;;;;;9.74;39.52;99493.84;4934019;28;20043;-73
2022/03/11 08:10:49;;;;;;;16.35;8.88;;;;;;;9.82;39.95;99497.81;4951778;28;20027;-74
2022/03/11 08:13:15;;;;;;;13.13;8.55;;;;;;;10.02;39.33;99490.69;4933500;28;20031;-75
2022/03/11 08:15:40;;;;;;;11.25;7.50;;;;;;;10.04;38.96;99483.53;4951449;28;20688;-76
2022/03/11 08:18:05;;;;;;;14.48;9.70;;;;;;;10.08;39.47;99479.81;4950128;28;20031;-70
2022/03/11 08:20:31;;;;;;;16.52;10.60;;;;;;;10.19;39.27;99487.16;4949672;28;20688;-71
2022/03/11 08:22:57;;;;;;;13.75;9.02;;;;;;;10.31;39.20;99476.88;4949705;28;20101;-72
2022/03/11 08:25:26;;;;;;;17.70;7.13;;;;;;;10.40;39.10;99472.03;4950077;28;20068;-71
2022/03/11 08:27:53;;;;;;;14.95;9.32;;;;;;;10.63;38.85;99470.78;4949875;28;20515;-72
2022/03/11 08:30:19;;;;;;;11.02;7.47;;;;;;;10.83;38.93;99467.03;4950174;28;20093;-71
2022/03/11 08:32:45;;;;;;;13.85;8.07;;;;;;;11.15;38.37;99467.91;4950490;28;20047;-72
2022/03/11 08:35:10;;;;;;;14.63;8.95;;;;;;;11.48;37.49;99464.25;4951391;28;20050;-71
2022/03/11 08:37:36;;;;;;;9.30;7.45;;;;;;;11.79;37.59;99472.09;4933823;28;20090;-72
2022/03/11 08:40:06;;;;;;;16.40;8.70;;;;;;;12.42;36.05;99470.09;4951591;28;20031;-70
2022/03/11 08:42:32;;;;;;;10.80;8.13;;;;;;;12.92;34.48;99481.06;4950759;28;20047;-72
2022/03/11 08:45:01;;;;;;;17.13;9.55;;;;;;;13.43;33.87;99468.09;4951264;28;20027;-71
2022/03/11 08:47:27;;;;;;;10.68;7.65;;;;;;;13.88;33.17;99461.53;4950933;28;20047;-72
2022/03/11 08:49:53;;;;;;;15.40;8.63;;;;;;;14.03;33.16;99472.00;4950558;28;20573;-69
2022/03/11 08:52:19;;;;;;;17.17;10.65;;;;;;;14.13;33.21;99468.63;4950151;28;20047;-70
2022/03/11 08:54:45;;;;;;;16.63;8.63;;;;;;;14.65;32.35;99465.97;4951282;28;20038;-70
2022/03/11 08:57:11;;;;;;;17.25;9.40;;;;;;;15.25;36.23;99459.81;4951452;28;20050;-57
2022/03/11 08:59:36;;;;;;;13.82;9.15;;;;;;;16.58;29.91;99462.06;4950932;28;20039;-58
2022/03/11 09:02:03;;;;;;;14.80;7.68;;;;;;;16.97;31.08;99469.69;4951458;28;20032;-58
2022/03/11 09:04:28;;;;;;;11.65;8.65;;;;;;;17.93;29.37;99474.19;4954448;28;21041;-61
2022/03/11 09:06:53;;;;;;;9.32;7.45;;;;;;;18.75;27.81;99470.66;4952177;28;20035;-62
2022/03/11 09:09:19;;;;;;;11.07;9.00;;;;;;;19.22;26.08;99471.81;4952813;28;20055;-62
2022/03/11 09:11:44;;;;;;;10.23;8.05;;;;;;;19.35;26.09;99474.22;4952468;28;20043;-53
2022/03/11 09:14:11;;;;;;;19.65;8.75;;;;;;;19.71;25.51;99463.81;4953471;28;20031;-57
2022/03/11 09:16:37;;;;;;;14.10;9.00;;;;;;;20.14;25.70;99470.53;4953244;28;20082;-58
2022/03/11 09:19:03;;;;;;;9.57;7.80;;;;;;;20.38;25.26;99470.88;4953860;28;20036;-60
2022/03/11 09:21:28;;;;;;;10.75;7.55;;;;;;;20.66;25.30;99470.94;4954518;28;20031;-51
2022/03/11 09:23:54;;;;;;;11.48;9.30;;;;;;;21.00;24.38;99465.81;4954492;28;20031;-61
2022/03/11 09:26:19;;;;;;;13.20;8.77;;;;;;;20.75;24.53;99461.19;4955165;28;20039;-58
2022/03/11 09:28:44;;;;;;;11.27;8.73;;;;;;;21.05;24.63;99457.34;4955255;28;20059;-60
2022/03/11 09:31:10;;;;;;;10.95;8.00;;;;;;;21.15;24.53;99463.47;4955633;28;20035;-60
2022/03/11 09:33:38;;;;;;;12.70;9.80;;;;;;;20.94;24.03;99453.00;4954547;28;20066;-55
2022/03/11 09:36:05;;;;;;;9.82;7.93;;;;;;;21.37;24.83;99456.00;4937049;28;20569;-60
2022/03/11 09:38:31;;;;;;;14.07;9.07;;;;;;;21.38;24.13;99450.44;4955014;28;20419;-53
2022/03/11 09:40:57;;;;;;;10.88;8.55;;;;;;;21.33;24.03;99449.22;4943140;28;20047;-74
2022/03/11 09:43:22;;;;;;;12.73;7.43;;;;;;;21.22;24.31;99453.00;4955688;28;20059;-76
2022/03/11 09:45:49;;;;;;;13.27;9.27;;;;;;;21.30;24.28;99452.22;4959429;28;20058;-75
2022/03/11 09:48:16;;;;;;;10.95;9.05;;;;;;;21.42;24.03;99451.88;4958239;28;20039;-74
2022/03/11 09:50:42;;;;;;;12.02;7.60;;;;;;;21.77;24.07;99444.78;4941141;29;20027;-75
2022/03/11 09:53:08;;;;;;;10.95;8.75;;;;;;;21.88;23.55;99451.78;4953226;28;20443;-74
2022/03/11 09:55:33;;;;;;;10.80;7.32;;;;;;;22.12;23.85;99445.69;4947643;28;20066;-78
2022/03/11 09:57:59;;;;;;;10.32;8.00;;;;;;;22.49;23.27;99445.44;4953790;28;20035;-77
2022/03/11 10:00:24;;;;;;;10.43;8.55;;;;;;;22.77;23.01;99439.03;4946546;28;20035;-76
2022/03/11 10:02:50;;;;;;;11.13;8.73;;;;;;;22.72;22.91;99434.13;4957787;28;20714;-76
2022/03/11 10:05:16;;;;;;;10.88;8.07;;;;;;;22.53;23.01;99427.16;4954819;28;20038;-78
2022/03/11 10:07:42;;;;;;;11.38;9.18;;;;;;;22.68;23.22;99427.41;4949858;28;20126;-77
2022/03/11 10:10:17;;;;;;;10.25;8.63;;;;;;;22.78;22.96;99421.88;4930761;29;20763;-74
2022/03/11 10:12:45;;;;;;;10.35;8.20;;;;;;;22.38;23.47;99429.63;4948243;28;20126;-75
2022/03/11 10:15:12;;;;;;;12.00;8.50;;;;;;;22.08;23.72;99428.25;4950329;28;20031;-76
2022/03/11 10:17:41;;;;;;;19.20;10.18;;;;;;;21.90;23.91;99424.75;4944673;28;20078;-77
2022/03/11 10:20:14;;;;;;;11.85;8.88;;;;;;;21.56;24.47;99421.00;4950662;28;20035;-77
2022/03/11 10:22:41;;;;;;;11.52;9.40;;;;;;;21.41;24.63;99409.09;4949299;28;20039;-77
2022/03/11 10:25:14;;;;;;;13.52;8.93;;;;;;;21.88;24.45;99406.16;4948671;28;20096;-75
2022/03/11 10:27:54;;;;;;;11.82;9.68;;;;;;;21.97;24.10;99405.19;4948769;28;20039;-75
2022/03/11 10:30:20;;;;;;;11.95;8.57;;;;;;;22.07;24.17;99400.53;4937606;28;20462;-77
2022/03/11 10:32:50;;;;;;;17.73;9.60;;;;;;;22.10;24.08;99396.69;4951147;28;20035;-79
2022/03/11 10:35:18;;;;;;;11.70;8.35;;;;;;;21.62;24.82;99390.00;4948793;28;20055;-76
2022/03/11 10:37:59;;;;;;;10.88;7.70;;;;;;;21.89;24.17;99380.16;4949835;28;20163;-77
2022/03/11 10:40:26;;;;;;;12.60;8.63;;;;;;;22.18;24.07;99380.66;4950802;28;20043;-75
2022/03/11 10:43:16;;;;;;;11.80;9.55;;;;;;;21.91;24.54;99375.47;4948295;28;20061;-77
2022/03/11 10:45:45;;;;;;;12.07;8.93;;;;;;;21.23;25.21;99385.78;4936305;28;20055;-75
2022/03/11 10:48:10;;;;;;;11.45;8.60;;;;;;;20.63;26.19;99380.16;4942917;28;20326;-75
2022/03/11 10:50:36;;;;;;;13.00;8.48;;;;;;;19.79;27.68;99365.00;4929338;28;20051;-76
2022/03/11 10:53:06;;;;;;;10.93;8.68;;;;;;;19.55;27.98;99368.09;4929127;28;20124;-76
2022/03/11 10:55:33;;;;;;;11.80;9.20;;;;;;;19.06;29.02;99369.97;4928681;28;20039;-77
2022/03/11 10:58:01;;;;;;;14.88;7.32;;;;;;;18.73;29.40;99388.03;4934643;28;20352;-75
2022/03/11 11:00:32;;;;;;;9.35;7.85;;;;;;;18.39;29.72;99376.84;4948008;28;20070;-76
2022/03/11 11:03:08;;;;;;;10.38;6.55;;;;;;;18.28;30.09;99376.94;4947741;28;20471;-75
2022/03/11 11:05:35;;;;;;;9.75;7.78;;;;;;;17.73;31.12;99367.38;4948466;28;20488;-76
2022/03/11 11:08:03;;;;;;;11.43;7.18;;;;;;;17.53;31.54;99373.56;4948062;28;20047;-77
2022/03/11 11:10:30;;;;;;;10.18;7.90;;;;;;;17.42;31.50;99362.97;4948566;28;20039;-77
2022/03/11 11:12:56;;;;;;;12.18;8.20;;;;;;;17.30;32.05;99362.16;4930568;28;20047;-76
2022/03/11 11:15:22;;;;;;;13.20;7.05;;;;;;;17.14;32.64;99358.13;4947652;28;20066;-76
2022/03/11 11:17:50;;;;;;;11.73;7.35;;;;;;;17.02;33.09;99353.81;4947623;28;20452;-76
2022/03/11 11:20:19;;;;;;;13.38;6.65;;;;;;;16.92;32.81;99343.09;4947349;28;20070;-77
2022/03/11 11:22:47;;;;;;;7.53;5.70;;;;;;;16.83;33.12;99343.84;4947350;28;20039;-76
2022/03/11 11:25:15;;;;;;;7.07;5.30;;;;;;;16.71;32.86;99337.69;4947289;28;20043;-76
2022/03/11 11:27:42;;;;;;;6.13;4.50;;;;;;;16.65;33.11;99329.34;4947678;28;20043;-75